sensor_id;sensor_type;location;lat;lon;timestamp;temperature;humidity
30186;DHT22;31152;49.190;8.122;2022-12-18T00:01:29;-5.80;99.90
30186;DHT22;31152;49.190;8.122;2022-12-18T00:03:58;-5.80;99.90
30186;DHT22;31152;49.190;8.122;2022-12-18T00:06:31;-5.80;99.90
30186;DHT22;31152;49.190;8.122;2022-12-18T00:08:59;-5.80;99.90
30186;DHT22;31152;49.190;8.122;2022-12-18T00:11:32;-5.80;99.90
30186;DHT22;31152;49.190;8.122;2022-12-18T00:13:59;-5.80;99.90
30186;DHT22;31152;49.190;8.122;2022-12-18T00:16:27;-5.80;99.90
30186;DHT22;31152;49.190;8.122;2022-12-18T00:18:56;-5.80;99.90
30186;DHT22;31152;49.190;8.122;2022-12-18T00:21:23;-5.80;99.90
30186;DHT22;31152;49.190;8.122;2022-12-18T00:23:50;-5.80;99.90
30186;DHT22;31152;49.190;8.122;2022-12-18T00:26:19;-5.80;99.90
30186;DHT22;31152;49.190;8.122;2022-12-18T00:28:47;-5.80;99.90
30186;DHT22;31152;49.190;8.122;2022-12-18T00:31:16;-5.80;99.90
30186;DHT22;31152;49.190;8.122;2022-12-18T00:33:43;-5.80;99.90
30186;DHT22;31152;49.190;8.122;2022-12-18T00:36:18;-5.80;99.90
30186;DHT22;31152;49.190;8.122;2022-12-18T00:38:48;-5.80;99.90
30186;DHT22;31152;49.190;8.122;2022-12-18T00:41:16;-5.80;99.90
30186;DHT22;31152;49.190;8.122;2022-12-18T00:44:03;-5.80;99.90
30186;DHT22;31152;49.190;8.122;2022-12-18T00:46:30;-5.70;99.90
30186;DHT22;31152;49.190;8.122;2022-12-18T00:48:59;-5.80;99.90
30186;DHT22;31152;49.190;8.122;2022-12-18T00:51:26;-5.80;99.90
30186;DHT22;31152;49.190;8.122;2022-12-18T00:53:55;-5.70;99.90
30186;DHT22;31152;49.190;8.122;2022-12-18T00:56:22;-5.70;99.90
30186;DHT22;31152;49.190;8.122;2022-12-18T00:58:49;-5.60;99.90
30186;DHT22;31152;49.190;8.122;2022-12-18T01:01:17;-5.70;99.90
30186;DHT22;31152;49.190;8.122;2022-12-18T01:03:46;-5.70;99.90
30186;DHT22;31152;49.190;8.122;2022-12-18T01:06:14;-5.60;99.90
30186;DHT22;31152;49.190;8.122;2022-12-18T01:08:41;-5.60;99.90
30186;DHT22;31152;49.190;8.122;2022-12-18T01:11:11;-5.60;99.90
30186;DHT22;31152;49.190;8.122;2022-12-18T01:13:38;-5.50;99.90
30186;DHT22;31152;49.190;8.122;2022-12-18T01:16:06;-5.50;99.90
30186;DHT22;31152;49.190;8.122;2022-12-18T01:18:33;-5.50;99.90
30186;DHT22;31152;49.190;8.122;2022-12-18T01:21:08;-5.50;99.90
30186;DHT22;31152;49.190;8.122;2022-12-18T01:23:36;-5.50;99.90
30186;DHT22;31152;49.190;8.122;2022-12-18T01:26:12;-5.50;99.90
30186;DHT22;31152;49.190;8.122;2022-12-18T01:28:42;-5.50;99.90
30186;DHT22;31152;49.190;8.122;2022-12-18T01:33:41;-5.50;99.90
30186;DHT22;31152;49.190;8.122;2022-12-18T01:36:08;-5.50;99.90
30186;DHT22;31152;49.190;8.122;2022-12-18T01:38:35;-5.50;99.90
30186;DHT22;31152;49.190;8.122;2022-12-18T01:41:02;-5.40;99.90
30186;DHT22;31152;49.190;8.122;2022-12-18T01:44:01;-5.40;99.90
30186;DHT22;31152;49.190;8.122;2022-12-18T01:46:30;-5.40;99.90
30186;DHT22;31152;49.190;8.122;2022-12-18T01:48:59;-5.40;99.90
30186;DHT22;31152;49.190;8.122;2022-12-18T01:51:29;-5.40;99.90
30186;DHT22;31152;49.190;8.122;2022-12-18T01:53:59;-5.40;99.90
30186;DHT22;31152;49.190;8.122;2022-12-18T01:56:26;-5.40;99.90
30186;DHT22;31152;49.190;8.122;2022-12-18T01:59:01;-5.40;99.90
30186;DHT22;31152;49.190;8.122;2022-12-18T02:01:30;-5.40;99.90
30186;DHT22;31152;49.190;8.122;2022-12-18T02:04:25;-5.40;99.90
30186;DHT22;31152;49.190;8.122;2022-12-18T02:07:07;-5.40;99.90
30186;DHT22;31152;49.190;8.122;2022-12-18T02:09:45;-5.30;99.90
30186;DHT22;31152;49.190;8.122;2022-12-18T02:12:17;-5.30;99.90
30186;DHT22;31152;49.190;8.122;2022-12-18T02:15:13;-5.30;99.90
30186;DHT22;31152;49.190;8.122;2022-12-18T02:17:52;-5.30;99.90
30186;DHT22;31152;49.190;8.122;2022-12-18T02:20:44;-5.30;99.90
30186;DHT22;31152;49.190;8.122;2022-12-18T02:23:40;-5.30;99.90
30186;DHT22;31152;49.190;8.122;2022-12-18T02:29:02;-5.40;99.90
30186;DHT22;31152;49.190;8.122;2022-12-18T02:31:36;-5.30;99.90
30186;DHT22;31152;49.190;8.122;2022-12-18T02:34:04;-5.30;99.90
30186;DHT22;31152;49.190;8.122;2022-12-18T02:36:33;-5.30;99.90
30186;DHT22;31152;49.190;8.122;2022-12-18T02:39:01;-5.30;99.90
30186;DHT22;31152;49.190;8.122;2022-12-18T02:41:29;-5.30;99.90
30186;DHT22;31152;49.190;8.122;2022-12-18T02:44:06;-5.20;99.90
30186;DHT22;31152;49.190;8.122;2022-12-18T02:46:34;-5.20;99.90
30186;DHT22;31152;49.190;8.122;2022-12-18T02:52:12;-5.30;99.90
30186;DHT22;31152;49.190;8.122;2022-12-18T02:55:02;-5.20;99.90
30186;DHT22;31152;49.190;8.122;2022-12-18T02:57:58;-5.30;99.90
30186;DHT22;31152;49.190;8.122;2022-12-18T03:03:10;-5.20;99.90
30186;DHT22;31152;49.190;8.122;2022-12-18T03:08:29;-5.20;99.90
30186;DHT22;31152;49.190;8.122;2022-12-18T03:11:08;-5.20;99.90
30186;DHT22;31152;49.190;8.122;2022-12-18T03:16:11;-5.20;99.90
30186;DHT22;31152;49.190;8.122;2022-12-18T03:18:46;-5.30;99.90
30186;DHT22;31152;49.190;8.122;2022-12-18T03:21:14;-5.20;99.90
30186;DHT22;31152;49.190;8.122;2022-12-18T03:23:48;-5.30;99.90
30186;DHT22;31152;49.190;8.122;2022-12-18T03:26:19;-5.30;99.90
30186;DHT22;31152;49.190;8.122;2022-12-18T03:28:53;-5.30;99.90
30186;DHT22;31152;49.190;8.122;2022-12-18T03:31:25;-5.30;99.90
30186;DHT22;31152;49.190;8.122;2022-12-18T03:33:56;-5.30;99.90
30186;DHT22;31152;49.190;8.122;2022-12-18T03:36:24;-5.30;99.90
30186;DHT22;31152;49.190;8.122;2022-12-18T03:38:53;-5.30;99.90
30186;DHT22;31152;49.190;8.122;2022-12-18T03:44:15;-5.30;99.90
30186;DHT22;31152;49.190;8.122;2022-12-18T03:46:48;-5.30;99.90
30186;DHT22;31152;49.190;8.122;2022-12-18T03:49:35;-5.30;99.90
30186;DHT22;31152;49.190;8.122;2022-12-18T03:52:26;-5.40;99.90
30186;DHT22;31152;49.190;8.122;2022-12-18T03:54:56;-5.40;99.90
30186;DHT22;31152;49.190;8.122;2022-12-18T03:57:27;-5.40;99.90
30186;DHT22;31152;49.190;8.122;2022-12-18T03:59:57;-5.40;99.90
30186;DHT22;31152;49.190;8.122;2022-12-18T04:02:26;-5.40;99.90
30186;DHT22;31152;49.190;8.122;2022-12-18T04:04:53;-5.40;99.90
30186;DHT22;31152;49.190;8.122;2022-12-18T04:07:25;-5.40;99.90
30186;DHT22;31152;49.190;8.122;2022-12-18T04:09:56;-5.40;99.90
30186;DHT22;31152;49.190;8.122;2022-12-18T04:12:25;-5.40;99.90
30186;DHT22;31152;49.190;8.122;2022-12-18T04:14:52;-5.40;99.90
30186;DHT22;31152;49.190;8.122;2022-12-18T04:17:19;-5.40;99.90
30186;DHT22;31152;49.190;8.122;2022-12-18T04:19:50;-5.40;99.90
30186;DHT22;31152;49.190;8.122;2022-12-18T04:22:19;-5.40;99.90
30186;DHT22;31152;49.190;8.122;2022-12-18T04:24:48;-5.40;99.90
30186;DHT22;31152;49.190;8.122;2022-12-18T04:27:14;-5.40;99.90
30186;DHT22;31152;49.190;8.122;2022-12-18T04:29:43;-5.40;99.90
30186;DHT22;31152;49.190;8.122;2022-12-18T04:32:12;-5.50;99.90
30186;DHT22;31152;49.190;8.122;2022-12-18T04:34:39;-5.50;99.90
30186;DHT22;31152;49.190;8.122;2022-12-18T04:37:06;-5.40;99.90
30186;DHT22;31152;49.190;8.122;2022-12-18T04:39:34;-5.40;99.90
30186;DHT22;31152;49.190;8.122;2022-12-18T04:42:04;-5.50;99.90
30186;DHT22;31152;49.190;8.122;2022-12-18T04:44:31;-5.50;99.90
30186;DHT22;31152;49.190;8.122;2022-12-18T04:46:58;-5.50;99.90
30186;DHT22;31152;49.190;8.122;2022-12-18T04:49:27;-5.50;99.90
30186;DHT22;31152;49.190;8.122;2022-12-18T04:51:58;-5.50;99.90
30186;DHT22;31152;49.190;8.122;2022-12-18T04:54:25;-5.50;99.90
30186;DHT22;31152;49.190;8.122;2022-12-18T04:56:51;-5.50;99.90
30186;DHT22;31152;49.190;8.122;2022-12-18T04:59:19;-5.60;99.90
30186;DHT22;31152;49.190;8.122;2022-12-18T05:01:45;-5.60;99.90
30186;DHT22;31152;49.190;8.122;2022-12-18T05:04:12;-5.60;99.90
30186;DHT22;31152;49.190;8.122;2022-12-18T05:06:39;-5.60;99.90
30186;DHT22;31152;49.190;8.122;2022-12-18T05:09:08;-5.60;99.90
30186;DHT22;31152;49.190;8.122;2022-12-18T05:11:35;-5.60;99.90
30186;DHT22;31152;49.190;8.122;2022-12-18T05:14:01;-5.60;99.90
30186;DHT22;31152;49.190;8.122;2022-12-18T05:16:33;-5.60;99.90
30186;DHT22;31152;49.190;8.122;2022-12-18T05:19:02;-5.70;99.90
30186;DHT22;31152;49.190;8.122;2022-12-18T05:21:32;-5.70;99.90
30186;DHT22;31152;49.190;8.122;2022-12-18T05:23:59;-5.70;99.90
30186;DHT22;31152;49.190;8.122;2022-12-18T05:26:25;-5.70;99.90
30186;DHT22;31152;49.190;8.122;2022-12-18T05:28:56;-5.70;99.90
30186;DHT22;31152;49.190;8.122;2022-12-18T05:31:23;-5.70;99.90
30186;DHT22;31152;49.190;8.122;2022-12-18T05:33:50;-5.70;99.90
30186;DHT22;31152;49.190;8.122;2022-12-18T05:36:17;-5.80;99.90
30186;DHT22;31152;49.190;8.122;2022-12-18T05:38:44;-5.80;99.90
30186;DHT22;31152;49.190;8.122;2022-12-18T05:41:10;-5.80;99.90
30186;DHT22;31152;49.190;8.122;2022-12-18T05:43:41;-5.80;99.90
30186;DHT22;31152;49.190;8.122;2022-12-18T05:46:13;-5.80;99.90
30186;DHT22;31152;49.190;8.122;2022-12-18T05:48:40;-5.80;99.90
30186;DHT22;31152;49.190;8.122;2022-12-18T05:51:14;-5.80;99.90
30186;DHT22;31152;49.190;8.122;2022-12-18T05:53:42;-5.80;99.90
30186;DHT22;31152;49.190;8.122;2022-12-18T05:56:14;-5.90;99.90
30186;DHT22;31152;49.190;8.122;2022-12-18T05:58:42;-5.80;99.90
30186;DHT22;31152;49.190;8.122;2022-12-18T06:01:12;-5.80;99.90
30186;DHT22;31152;49.190;8.122;2022-12-18T06:03:42;-5.80;99.90
30186;DHT22;31152;49.190;8.122;2022-12-18T06:06:28;-5.90;99.90
30186;DHT22;31152;49.190;8.122;2022-12-18T06:08:55;-5.90;99.90
30186;DHT22;31152;49.190;8.122;2022-12-18T06:11:25;-5.90;99.90
30186;DHT22;31152;49.190;8.122;2022-12-18T06:13:54;-5.90;99.90
30186;DHT22;31152;49.190;8.122;2022-12-18T06:16:24;-5.90;99.90
30186;DHT22;31152;49.190;8.122;2022-12-18T06:18:56;-5.80;99.90
30186;DHT22;31152;49.190;8.122;2022-12-18T06:21:23;-5.90;99.90
30186;DHT22;31152;49.190;8.122;2022-12-18T06:23:50;-5.90;99.90
30186;DHT22;31152;49.190;8.122;2022-12-18T06:26:19;-5.90;99.90
30186;DHT22;31152;49.190;8.122;2022-12-18T06:28:54;-5.90;99.90
30186;DHT22;31152;49.190;8.122;2022-12-18T06:31:21;-5.90;99.90
30186;DHT22;31152;49.190;8.122;2022-12-18T06:33:47;-5.90;99.90
30186;DHT22;31152;49.190;8.122;2022-12-18T06:36:14;-5.90;99.90
30186;DHT22;31152;49.190;8.122;2022-12-18T06:38:43;-5.90;99.90
30186;DHT22;31152;49.190;8.122;2022-12-18T06:41:12;-5.90;99.90
30186;DHT22;31152;49.190;8.122;2022-12-18T06:43:39;-5.90;99.90
30186;DHT22;31152;49.190;8.122;2022-12-18T06:46:06;-5.90;99.90
30186;DHT22;31152;49.190;8.122;2022-12-18T06:48:33;-5.90;99.90
30186;DHT22;31152;49.190;8.122;2022-12-18T06:51:00;-6.00;99.90
30186;DHT22;31152;49.190;8.122;2022-12-18T06:53:28;-6.00;99.90
30186;DHT22;31152;49.190;8.122;2022-12-18T06:56:02;-6.00;99.90
30186;DHT22;31152;49.190;8.122;2022-12-18T06:58:35;-6.00;99.90
30186;DHT22;31152;49.190;8.122;2022-12-18T07:01:04;-6.00;99.90
30186;DHT22;31152;49.190;8.122;2022-12-18T07:03:34;-6.00;99.90
30186;DHT22;31152;49.190;8.122;2022-12-18T07:06:01;-6.00;99.90
30186;DHT22;31152;49.190;8.122;2022-12-18T07:08:29;-6.00;99.90
30186;DHT22;31152;49.190;8.122;2022-12-18T07:10:57;-6.00;99.90
30186;DHT22;31152;49.190;8.122;2022-12-18T07:13:23;-6.00;99.90
30186;DHT22;31152;49.190;8.122;2022-12-18T07:15:50;-6.00;99.90
30186;DHT22;31152;49.190;8.122;2022-12-18T07:18:17;-6.00;99.90
30186;DHT22;31152;49.190;8.122;2022-12-18T07:20:43;-6.00;99.90
30186;DHT22;31152;49.190;8.122;2022-12-18T07:23:13;-6.00;99.90
30186;DHT22;31152;49.190;8.122;2022-12-18T07:25:40;-6.00;99.90
30186;DHT22;31152;49.190;8.122;2022-12-18T07:28:06;-6.00;99.90
30186;DHT22;31152;49.190;8.122;2022-12-18T07:30:39;-5.90;99.90
30186;DHT22;31152;49.190;8.122;2022-12-18T07:33:07;-5.90;99.90
30186;DHT22;31152;49.190;8.122;2022-12-18T07:35:34;-5.80;99.90
30186;DHT22;31152;49.190;8.122;2022-12-18T07:38:00;-5.80;99.90
30186;DHT22;31152;49.190;8.122;2022-12-18T07:40:27;-5.80;99.90
30186;DHT22;31152;49.190;8.122;2022-12-18T07:42:54;-5.80;99.90
30186;DHT22;31152;49.190;8.122;2022-12-18T07:45:20;-5.70;99.90
30186;DHT22;31152;49.190;8.122;2022-12-18T07:47:47;-5.70;99.90
30186;DHT22;31152;49.190;8.122;2022-12-18T07:50:14;-5.70;99.90
30186;DHT22;31152;49.190;8.122;2022-12-18T07:52:41;-5.60;99.90
30186;DHT22;31152;49.190;8.122;2022-12-18T07:55:10;-5.60;99.90
30186;DHT22;31152;49.190;8.122;2022-12-18T07:57:37;-5.50;99.90
30186;DHT22;31152;49.190;8.122;2022-12-18T08:00:24;-5.50;99.90
30186;DHT22;31152;49.190;8.122;2022-12-18T08:02:51;-5.40;99.90
30186;DHT22;31152;49.190;8.122;2022-12-18T08:05:21;-5.30;99.90
30186;DHT22;31152;49.190;8.122;2022-12-18T08:07:52;-5.20;99.90
30186;DHT22;31152;49.190;8.122;2022-12-18T08:10:20;-5.20;99.90
30186;DHT22;31152;49.190;8.122;2022-12-18T08:12:54;-5.10;99.90
30186;DHT22;31152;49.190;8.122;2022-12-18T08:15:30;-5.00;99.90
30186;DHT22;31152;49.190;8.122;2022-12-18T08:17:57;-5.00;99.90
30186;DHT22;31152;49.190;8.122;2022-12-18T08:20:24;-4.90;99.90
30186;DHT22;31152;49.190;8.122;2022-12-18T08:22:50;-4.80;99.90
30186;DHT22;31152;49.190;8.122;2022-12-18T08:25:17;-4.80;99.90
30186;DHT22;31152;49.190;8.122;2022-12-18T08:27:44;-4.70;99.90
30186;DHT22;31152;49.190;8.122;2022-12-18T08:30:11;-4.60;99.90
30186;DHT22;31152;49.190;8.122;2022-12-18T08:32:38;-4.50;99.90
30186;DHT22;31152;49.190;8.122;2022-12-18T08:35:05;-4.50;99.90
30186;DHT22;31152;49.190;8.122;2022-12-18T08:37:32;-4.30;99.90
30186;DHT22;31152;49.190;8.122;2022-12-18T08:40:01;-4.20;99.90
30186;DHT22;31152;49.190;8.122;2022-12-18T08:42:32;-4.10;99.90
30186;DHT22;31152;49.190;8.122;2022-12-18T08:45:18;-4.00;99.90
30186;DHT22;31152;49.190;8.122;2022-12-18T08:47:44;-3.80;99.90
30186;DHT22;31152;49.190;8.122;2022-12-18T08:50:13;-3.70;99.90
30186;DHT22;31152;49.190;8.122;2022-12-18T08:52:41;-3.60;99.90
30186;DHT22;31152;49.190;8.122;2022-12-18T08:55:08;-3.50;99.90
30186;DHT22;31152;49.190;8.122;2022-12-18T08:57:36;-3.30;99.90
30186;DHT22;31152;49.190;8.122;2022-12-18T09:00:04;-3.20;99.90
30186;DHT22;31152;49.190;8.122;2022-12-18T09:02:31;-3.20;99.90
30186;DHT22;31152;49.190;8.122;2022-12-18T09:04:58;-3.10;99.90
30186;DHT22;31152;49.190;8.122;2022-12-18T09:07:25;-3.00;99.90
30186;DHT22;31152;49.190;8.122;2022-12-18T09:09:51;-3.00;99.90
30186;DHT22;31152;49.190;8.122;2022-12-18T09:12:21;-2.90;99.90
30186;DHT22;31152;49.190;8.122;2022-12-18T09:14:50;-2.80;99.90
30186;DHT22;31152;49.190;8.122;2022-12-18T09:17:17;-2.70;99.90
30186;DHT22;31152;49.190;8.122;2022-12-18T09:19:44;-2.70;99.90
30186;DHT22;31152;49.190;8.122;2022-12-18T09:22:10;-2.60;99.90
30186;DHT22;31152;49.190;8.122;2022-12-18T09:24:37;-2.60;99.90
30186;DHT22;31152;49.190;8.122;2022-12-18T09:27:04;-2.60;99.90
30186;DHT22;31152;49.190;8.122;2022-12-18T09:29:31;-2.50;99.90
30186;DHT22;31152;49.190;8.122;2022-12-18T09:31:58;-2.40;99.90
30186;DHT22;31152;49.190;8.122;2022-12-18T09:34:25;-2.30;99.90
30186;DHT22;31152;49.190;8.122;2022-12-18T09:36:52;-2.20;99.90
30186;DHT22;31152;49.190;8.122;2022-12-18T09:39:19;-2.30;99.90
30186;DHT22;31152;49.190;8.122;2022-12-18T09:41:57;-2.10;99.90
30186;DHT22;31152;49.190;8.122;2022-12-18T09:44:36;-2.10;99.90
30186;DHT22;31152;49.190;8.122;2022-12-18T09:47:15;-1.80;99.90
30186;DHT22;31152;49.190;8.122;2022-12-18T09:49:49;-1.50;99.90
30186;DHT22;31152;49.190;8.122;2022-12-18T09:52:23;-1.50;99.90
30186;DHT22;31152;49.190;8.122;2022-12-18T09:54:55;-1.50;99.90
30186;DHT22;31152;49.190;8.122;2022-12-18T09:57:24;-1.60;99.90
30186;DHT22;31152;49.190;8.122;2022-12-18T10:02:59;-1.70;99.90
30186;DHT22;31152;49.190;8.122;2022-12-18T10:05:43;-1.90;99.90
30186;DHT22;31152;49.190;8.122;2022-12-18T10:08:23;-1.90;99.90
30186;DHT22;31152;49.190;8.122;2022-12-18T10:10:57;-1.90;99.90
30186;DHT22;31152;49.190;8.122;2022-12-18T10:13:41;-1.80;99.90
30186;DHT22;31152;49.190;8.122;2022-12-18T10:16:12;-1.90;99.90
30186;DHT22;31152;49.190;8.122;2022-12-18T10:21:18;-2.00;99.90
30186;DHT22;31152;49.190;8.122;2022-12-18T10:24:08;-2.10;99.90
30186;DHT22;31152;49.190;8.122;2022-12-18T10:26:40;-2.00;99.90
30186;DHT22;31152;49.190;8.122;2022-12-18T10:29:12;-1.70;99.90
30186;DHT22;31152;49.190;8.122;2022-12-18T10:31:39;-1.20;99.90
30186;DHT22;31152;49.190;8.122;2022-12-18T10:34:13;-0.50;99.90
30186;DHT22;31152;49.190;8.122;2022-12-18T10:36:39;-0.40;99.90
30186;DHT22;31152;49.190;8.122;2022-12-18T10:39:24;-0.10;99.90
30186;DHT22;31152;49.190;8.122;2022-12-18T10:42:19;0.40;99.90
30186;DHT22;31152;49.190;8.122;2022-12-18T10:44:46;1.00;99.90
30186;DHT22;31152;49.190;8.122;2022-12-18T10:47:27;1.60;99.90
30186;DHT22;31152;49.190;8.122;2022-12-18T10:49:56;1.70;99.90
30186;DHT22;31152;49.190;8.122;2022-12-18T10:52:27;1.50;99.90
30186;DHT22;31152;49.190;8.122;2022-12-18T10:55:05;1.30;99.90
30186;DHT22;31152;49.190;8.122;2022-12-18T10:57:37;1.00;99.90
30186;DHT22;31152;49.190;8.122;2022-12-18T11:00:26;0.60;99.90
30186;DHT22;31152;49.190;8.122;2022-12-18T11:02:54;0.10;99.90
30186;DHT22;31152;49.190;8.122;2022-12-18T11:07:56;-0.40;99.90
30186;DHT22;31152;49.190;8.122;2022-12-18T11:10:33;-0.30;99.90
30186;DHT22;31152;49.190;8.122;2022-12-18T11:13:17;0.10;99.90
30186;DHT22;31152;49.190;8.122;2022-12-18T11:15:45;0.90;99.90
30186;DHT22;31152;49.190;8.122;2022-12-18T11:18:30;1.30;99.90
30186;DHT22;31152;49.190;8.122;2022-12-18T11:21:16;1.50;99.90
30186;DHT22;31152;49.190;8.122;2022-12-18T11:23:53;1.40;99.90
30186;DHT22;31152;49.190;8.122;2022-12-18T11:26:22;1.60;99.90
30186;DHT22;31152;49.190;8.122;2022-12-18T11:29:14;1.90;99.90
30186;DHT22;31152;49.190;8.122;2022-12-18T11:31:46;2.10;99.90
30186;DHT22;31152;49.190;8.122;2022-12-18T11:34:23;2.10;99.90
30186;DHT22;31152;49.190;8.122;2022-12-18T11:36:57;1.70;99.50
30186;DHT22;31152;49.190;8.122;2022-12-18T11:39:40;1.20;99.90
30186;DHT22;31152;49.190;8.122;2022-12-18T11:42:17;0.80;99.90
30186;DHT22;31152;49.190;8.122;2022-12-18T11:44:49;0.40;99.90
30186;DHT22;31152;49.190;8.122;2022-12-18T11:47:52;0.10;99.90
30186;DHT22;31152;49.190;8.122;2022-12-18T11:50:20;-0.10;99.90
30186;DHT22;31152;49.190;8.122;2022-12-18T11:52:48;-0.20;99.90
30186;DHT22;31152;49.190;8.122;2022-12-18T11:55:31;-0.20;99.90
30186;DHT22;31152;49.190;8.122;2022-12-18T12:04:03;-0.70;99.90
30186;DHT22;31152;49.190;8.122;2022-12-18T12:06:45;-0.90;99.90
30186;DHT22;31152;49.190;8.122;2022-12-18T12:15:34;-1.70;99.90
30186;DHT22;31152;49.190;8.122;2022-12-18T12:32:03;-1.60;99.90
30186;DHT22;31152;49.190;8.122;2022-12-18T12:35:17;-1.50;99.90
30186;DHT22;31152;49.190;8.122;2022-12-18T12:40:27;-1.30;99.90
30186;DHT22;31152;49.190;8.122;2022-12-18T12:43:35;-1.30;99.90
30186;DHT22;31152;49.190;8.122;2022-12-18T12:46:18;-1.20;99.90
30186;DHT22;31152;49.190;8.122;2022-12-18T12:48:50;-1.10;99.90
30186;DHT22;31152;49.190;8.122;2022-12-18T12:51:25;-1.10;99.90
30186;DHT22;31152;49.190;8.122;2022-12-18T12:53:54;-1.10;99.90
30186;DHT22;31152;49.190;8.122;2022-12-18T12:56:26;-1.10;99.90
30186;DHT22;31152;49.190;8.122;2022-12-18T12:59:26;-1.10;99.90
30186;DHT22;31152;49.190;8.122;2022-12-18T13:02:23;-1.10;99.90
30186;DHT22;31152;49.190;8.122;2022-12-18T13:05:12;-1.20;99.90
30186;DHT22;31152;49.190;8.122;2022-12-18T13:07:59;-1.30;99.90
30186;DHT22;31152;49.190;8.122;2022-12-18T13:10:39;-1.30;99.90
30186;DHT22;31152;49.190;8.122;2022-12-18T13:13:15;-1.30;99.90
30186;DHT22;31152;49.190;8.122;2022-12-18T13:16:07;-1.20;99.90
30186;DHT22;31152;49.190;8.122;2022-12-18T13:18:35;-1.30;99.90
30186;DHT22;31152;49.190;8.122;2022-12-18T13:21:19;-1.40;99.90
30186;DHT22;31152;49.190;8.122;2022-12-18T13:23:47;-1.50;99.90
30186;DHT22;31152;49.190;8.122;2022-12-18T13:28:55;-1.60;99.90
30186;DHT22;31152;49.190;8.122;2022-12-18T13:34:19;-1.60;99.90
30186;DHT22;31152;49.190;8.122;2022-12-18T13:36:57;-1.70;99.90
30186;DHT22;31152;49.190;8.122;2022-12-18T13:39:43;-1.70;99.90
30186;DHT22;31152;49.190;8.122;2022-12-18T13:44:59;-1.90;99.90
30186;DHT22;31152;49.190;8.122;2022-12-18T13:47:37;-2.20;99.90
30186;DHT22;31152;49.190;8.122;2022-12-18T13:50:22;-2.20;99.90
30186;DHT22;31152;49.190;8.122;2022-12-18T13:52:50;-2.20;99.90
30186;DHT22;31152;49.190;8.122;2022-12-18T13:55:19;-2.20;99.90
30186;DHT22;31152;49.190;8.122;2022-12-18T13:57:47;-2.10;99.90
30186;DHT22;31152;49.190;8.122;2022-12-18T14:00:29;-2.10;99.90
30186;DHT22;31152;49.190;8.122;2022-12-18T14:02:58;-2.10;99.90
30186;DHT22;31152;49.190;8.122;2022-12-18T14:05:29;-2.10;99.90
30186;DHT22;31152;49.190;8.122;2022-12-18T14:08:01;-2.20;99.90
30186;DHT22;31152;49.190;8.122;2022-12-18T14:10:32;-2.20;99.90
30186;DHT22;31152;49.190;8.122;2022-12-18T14:13:37;-2.30;99.90
30186;DHT22;31152;49.190;8.122;2022-12-18T14:16:05;-2.40;99.90
30186;DHT22;31152;49.190;8.122;2022-12-18T14:18:38;-2.50;99.90
30186;DHT22;31152;49.190;8.122;2022-12-18T14:21:27;-2.50;99.90
30186;DHT22;31152;49.190;8.122;2022-12-18T14:24:19;-2.60;99.90
30186;DHT22;31152;49.190;8.122;2022-12-18T14:26:48;-2.60;99.90
30186;DHT22;31152;49.190;8.122;2022-12-18T14:29:29;-2.70;99.90
30186;DHT22;31152;49.190;8.122;2022-12-18T14:34:50;-2.80;99.90
30186;DHT22;31152;49.190;8.122;2022-12-18T14:37:22;-2.70;99.90
30186;DHT22;31152;49.190;8.122;2022-12-18T14:40:00;-2.70;99.90
30186;DHT22;31152;49.190;8.122;2022-12-18T14:42:36;-2.70;99.90
30186;DHT22;31152;49.190;8.122;2022-12-18T14:48:17;-2.70;99.90
30186;DHT22;31152;49.190;8.122;2022-12-18T14:53:44;-2.60;99.90
30186;DHT22;31152;49.190;8.122;2022-12-18T14:56:28;-2.70;99.90
30186;DHT22;31152;49.190;8.122;2022-12-18T15:01:28;-2.70;99.90
30186;DHT22;31152;49.190;8.122;2022-12-18T15:03:59;-2.70;99.90
30186;DHT22;31152;49.190;8.122;2022-12-18T15:08:58;-2.70;99.90
30186;DHT22;31152;49.190;8.122;2022-12-18T15:11:33;-2.80;99.90
30186;DHT22;31152;49.190;8.122;2022-12-18T15:14:22;-2.80;99.90
30186;DHT22;31152;49.190;8.122;2022-12-18T15:16:53;-2.80;99.90
30186;DHT22;31152;49.190;8.122;2022-12-18T15:19:38;-2.80;99.90
30186;DHT22;31152;49.190;8.122;2022-12-18T15:22:38;-2.90;99.90
30186;DHT22;31152;49.190;8.122;2022-12-18T15:25:33;-2.90;99.90
30186;DHT22;31152;49.190;8.122;2022-12-18T15:28:01;-2.80;99.90
30186;DHT22;31152;49.190;8.122;2022-12-18T15:30:32;-2.90;99.90
30186;DHT22;31152;49.190;8.122;2022-12-18T15:33:25;-2.90;99.90
30186;DHT22;31152;49.190;8.122;2022-12-18T15:36:00;-3.00;99.90
30186;DHT22;31152;49.190;8.122;2022-12-18T15:38:27;-3.00;99.90
30186;DHT22;31152;49.190;8.122;2022-12-18T15:40:57;-3.00;99.90
30186;DHT22;31152;49.190;8.122;2022-12-18T15:43:25;-3.00;99.90
30186;DHT22;31152;49.190;8.122;2022-12-18T15:46:09;-3.00;99.90
30186;DHT22;31152;49.190;8.122;2022-12-18T15:48:45;-3.00;99.90
30186;DHT22;31152;49.190;8.122;2022-12-18T15:53:43;-2.90;99.90
30186;DHT22;31152;49.190;8.122;2022-12-18T15:56:11;-2.90;99.90
30186;DHT22;31152;49.190;8.122;2022-12-18T15:59:00;-2.80;99.90
30186;DHT22;31152;49.190;8.122;2022-12-18T16:01:29;-2.80;99.90
30186;DHT22;31152;49.190;8.122;2022-12-18T16:03:57;-2.80;99.90
30186;DHT22;31152;49.190;8.122;2022-12-18T16:06:24;-2.70;99.90
30186;DHT22;31152;49.190;8.122;2022-12-18T16:08:51;-2.70;99.90
30186;DHT22;31152;49.190;8.122;2022-12-18T16:11:28;-2.60;99.90
30186;DHT22;31152;49.190;8.122;2022-12-18T16:14:20;-2.60;99.90
30186;DHT22;31152;49.190;8.122;2022-12-18T16:16:50;-2.60;99.90
30186;DHT22;31152;49.190;8.122;2022-12-18T16:19:17;-2.60;99.90
30186;DHT22;31152;49.190;8.122;2022-12-18T16:21:46;-2.50;99.90
30186;DHT22;31152;49.190;8.122;2022-12-18T16:24:26;-2.50;99.90
30186;DHT22;31152;49.190;8.122;2022-12-18T16:26:54;-2.50;99.90
30186;DHT22;31152;49.190;8.122;2022-12-18T16:29:21;-2.40;99.90
30186;DHT22;31152;49.190;8.122;2022-12-18T16:31:51;-2.30;99.90
30186;DHT22;31152;49.190;8.122;2022-12-18T16:34:32;-2.20;99.90
30186;DHT22;31152;49.190;8.122;2022-12-18T16:37:06;-2.20;99.90
30186;DHT22;31152;49.190;8.122;2022-12-18T16:39:35;-2.20;99.90
30186;DHT22;31152;49.190;8.122;2022-12-18T16:42:03;-2.10;99.90
30186;DHT22;31152;49.190;8.122;2022-12-18T16:44:32;-2.10;99.90
30186;DHT22;31152;49.190;8.122;2022-12-18T16:46:59;-2.10;99.90
30186;DHT22;31152;49.190;8.122;2022-12-18T16:49:29;-2.10;99.90
30186;DHT22;31152;49.190;8.122;2022-12-18T16:51:58;-2.10;99.90
30186;DHT22;31152;49.190;8.122;2022-12-18T16:54:30;-2.10;99.90
30186;DHT22;31152;49.190;8.122;2022-12-18T16:56:57;-2.10;99.90
30186;DHT22;31152;49.190;8.122;2022-12-18T16:59:28;-2.10;99.90
30186;DHT22;31152;49.190;8.122;2022-12-18T17:01:55;-2.00;99.90
30186;DHT22;31152;49.190;8.122;2022-12-18T17:04:23;-2.10;99.90
30186;DHT22;31152;49.190;8.122;2022-12-18T17:06:49;-2.00;99.90
30186;DHT22;31152;49.190;8.122;2022-12-18T17:09:20;-2.00;99.90
30186;DHT22;31152;49.190;8.122;2022-12-18T17:11:51;-2.00;99.90
30186;DHT22;31152;49.190;8.122;2022-12-18T17:14:21;-2.00;99.90
30186;DHT22;31152;49.190;8.122;2022-12-18T17:16:48;-2.00;99.90
30186;DHT22;31152;49.190;8.122;2022-12-18T17:19:35;-2.00;99.90
30186;DHT22;31152;49.190;8.122;2022-12-18T17:22:02;-2.00;99.90
30186;DHT22;31152;49.190;8.122;2022-12-18T17:24:29;-2.10;99.90
30186;DHT22;31152;49.190;8.122;2022-12-18T17:27:01;-2.00;99.90